createdAt,value
2019-04-10T00:02:35.598Z," 6.67"
2019-04-10T00:07:31.275Z," 6.74"
2019-04-10T00:12:27.714Z," 6.70"
2019-04-10T00:17:22.996Z," 6.60"
2019-04-10T00:22:18.788Z," 6.49"
2019-04-10T00:27:14.625Z," 6.42"
2019-04-10T00:32:10.382Z," 6.41"
2019-04-10T00:37:19.917Z," 6.19"
2019-04-10T00:42:05.901Z," 6.11"
2019-04-10T00:47:02.427Z," 6.12"
2019-04-10T00:51:59.564Z," 5.99"
2019-04-10T00:56:54.609Z," 5.91"
2019-04-10T01:01:50.418Z," 5.86"
2019-04-10T01:06:46.320Z," 5.83"
2019-04-10T01:11:41.727Z," 5.84"
2019-04-10T01:16:37.724Z," 5.71"
2019-04-10T01:21:34.577Z," 5.65"
2019-04-10T01:26:29.725Z," 5.50"
2019-04-10T01:31:26.747Z," 5.47"
2019-04-10T01:36:22.761Z," 5.35"
2019-04-10T01:41:19.428Z," 5.15"
2019-04-10T01:46:14.575Z," 5.25"
2019-04-10T01:51:11.189Z," 5.20"
2019-04-10T01:56:20.410Z," 5.10"
2019-04-10T02:01:05.508Z," 5.00"
2019-04-10T02:06:01.087Z," 4.97"
2019-04-10T02:10:58.644Z," 4.84"
2019-04-10T02:15:54.495Z," 4.73"
2019-04-10T02:20:51.531Z," 4.80"
2019-04-10T02:25:47.236Z," 4.74"
2019-04-10T02:30:43.892Z," 4.56"
2019-04-10T02:35:40.028Z," 4.55"
2019-04-10T02:40:37.279Z," 4.49"
2019-04-10T02:45:32.691Z," 4.52"
2019-04-10T02:50:29.396Z," 4.40"
2019-04-10T02:55:25.129Z," 4.49"
2019-04-10T03:00:22.342Z," 4.48"
2019-04-10T03:05:19.474Z," 4.35"
2019-04-10T03:10:25.177Z," 4.23"
2019-04-10T03:15:17.003Z," 4.28"
2019-04-10T03:20:12.046Z," 4.24"
2019-04-10T03:25:08.724Z," 4.20"
2019-04-10T03:30:05.218Z," 4.02"
2019-04-10T03:35:02.861Z," 3.94"
2019-04-10T03:39:57.423Z," 3.95"
2019-04-10T03:44:53.015Z," 3.87"
2019-04-10T03:49:49.904Z," 3.80"
2019-04-10T03:54:46.052Z," 3.91"
2019-04-10T03:59:42.064Z," 3.69"
2019-04-10T04:04:37.744Z," 3.73"
2019-04-10T04:09:33.635Z," 3.45"
2019-04-10T04:14:30.494Z," 3.31"
2019-04-10T04:19:26.111Z," 3.34"
2019-04-10T04:24:23.552Z," 3.16"
2019-04-10T04:29:20.555Z," 3.14"
2019-04-10T04:34:15.816Z," 2.93"
2019-04-10T04:39:21.166Z," 3.01"
2019-04-10T04:44:11.011Z," 3.00"
2019-04-10T04:49:07.919Z," 2.80"
2019-04-10T04:54:04.500Z," 2.85"
2019-04-10T04:59:01.453Z," 2.77"
2019-04-10T05:03:58.241Z," 2.86"
2019-04-10T05:08:54.717Z," 2.83"
2019-04-10T05:13:50.905Z," 2.85"
2019-04-10T05:18:47.660Z," 2.80"
2019-04-10T05:23:44.978Z," 2.82"
2019-04-10T05:28:40.338Z," 2.86"
2019-04-10T05:33:37.075Z," 3.03"
2019-04-10T05:38:33.471Z," 3.01"
2019-04-10T05:43:28.892Z," 3.19"
2019-04-10T05:48:25.451Z," 3.13"
2019-04-10T05:53:22.534Z," 3.21"
2019-04-10T05:58:18.140Z," 3.21"
2019-04-10T06:03:14.554Z," 3.34"
2019-04-10T06:08:11.833Z," 3.53"
2019-04-10T06:13:07.284Z," 3.70"
2019-04-10T06:18:04.970Z," 3.77"
2019-04-10T06:23:01.255Z," 3.87"
2019-04-10T06:27:56.928Z," 4.05"
2019-04-10T06:32:53.702Z," 4.08"
2019-04-10T06:37:50.450Z," 4.08"
2019-04-10T06:42:51.594Z," 4.44"
2019-04-10T06:47:46.614Z," 4.35"
2019-04-10T06:52:42.990Z," 4.41"
2019-04-10T06:57:46.904Z," 4.56"
2019-04-10T07:02:38.874Z," 4.52"
2019-04-10T07:07:45.306Z," 4.97"
2019-04-10T07:12:35.883Z," 5.12"
2019-04-10T07:17:35.686Z," 5.14"
2019-04-10T07:22:31.130Z," 5.25"
2019-04-10T07:27:26.429Z," 5.41"
2019-04-10T07:32:24.260Z," 5.50"
2019-04-10T07:37:21.654Z," 5.62"
2019-04-10T07:42:26.854Z," 5.84"
2019-04-10T07:47:20.567Z," 6.02"
2019-04-10T07:52:15.535Z," 6.22"
2019-04-10T07:57:11.829Z," 6.70"
2019-04-10T08:02:09.789Z," 7.06"
2019-04-10T08:07:05.912Z," 6.99"
2019-04-10T08:12:03.652Z," 7.61"
2019-04-10T08:16:59.949Z," 8.08"
2019-04-10T08:21:57.122Z," 8.38"
2019-04-10T08:26:53.197Z," 8.30"
2019-04-10T08:36:51.102Z," 8.10"
2019-04-10T08:41:48.123Z," 8.16"
2019-04-10T08:46:44.166Z," 8.31"
2019-04-10T08:51:39.661Z," 8.31"
2019-04-10T08:56:36.412Z," 8.24"
2019-04-10T09:01:33.414Z," 8.66"
2019-04-10T09:06:30.115Z," 8.95"
2019-04-10T09:11:28.399Z," 8.70"
2019-04-10T09:16:24.713Z," 8.79"
2019-04-10T09:21:21.526Z," 9.03"
2019-04-10T09:26:17.441Z," 8.94"
2019-04-10T09:31:13.568Z," 8.92"
2019-04-10T09:36:11.166Z," 8.95"
2019-04-10T09:41:07.778Z," 9.10"
2019-04-10T09:46:04.273Z," 9.16"
2019-04-10T09:51:00.649Z," 9.62"
2019-04-10T09:55:56.796Z," 9.73"
2019-04-10T10:00:52.832Z," 9.76"
2019-04-10T10:05:48.604Z,10.07
2019-04-10T10:10:45.064Z," 9.92"
2019-04-10T10:15:41.731Z," 9.80"
2019-04-10T10:20:38.187Z,10.19
2019-04-10T10:25:37.475Z,10.93
2019-04-10T10:30:33.724Z,10.04
2019-04-10T10:35:31.330Z,10.31
2019-04-10T10:40:29.754Z,10.53
2019-04-10T10:45:25.515Z,10.57
2019-04-10T10:50:23.565Z,11.05
2019-04-10T10:55:21.028Z,11.48
2019-04-10T11:00:17.133Z,11.17
2019-04-10T11:05:13.091Z,11.41
2019-04-10T11:10:09.485Z,10.97
2019-04-10T11:15:05.913Z,11.48
2019-04-10T11:20:02.767Z,11.63
2019-04-10T11:25:00.202Z,11.99
2019-04-10T11:29:55.079Z,11.11
2019-04-10T11:34:52.885Z,11.18
2019-04-10T11:39:50.740Z,11.59
2019-04-10T11:44:49.262Z,11.62
2019-04-10T11:49:47.141Z,11.37
2019-04-10T11:54:44.921Z,10.92
2019-04-10T11:59:43.955Z,10.82
2019-04-10T12:04:49.212Z,10.97
2019-04-10T12:14:37.408Z,11.07
2019-04-10T12:19:33.267Z,11.41
2019-04-10T12:24:30.110Z,11.73
2019-04-10T12:29:26.728Z,11.05
2019-04-10T12:34:22.329Z,10.61
2019-04-10T12:39:18.364Z,11.41
2019-04-10T12:44:15.850Z,11.50
2019-04-10T12:49:11.604Z,11.48
2019-04-10T12:54:07.944Z,11.05
2019-04-10T12:59:03.438Z,11.12
2019-04-10T13:04:00.125Z,11.19
2019-04-10T13:09:03.278Z,11.52
2019-04-10T13:13:55.568Z,11.62
2019-04-10T13:18:52.347Z,11.33
2019-04-10T13:23:47.594Z,11.55
2019-04-10T13:28:43.955Z,11.54
2019-04-10T13:33:40.628Z,11.55
2019-04-10T13:38:36.942Z,11.33
2019-04-10T13:43:33.884Z,11.33
2019-04-10T13:48:29.702Z,11.48
2019-04-10T13:53:25.936Z,11.62
2019-04-10T13:58:21.409Z,11.59
2019-04-10T14:03:18.401Z,11.72
2019-04-10T14:08:14.678Z,11.59
2019-04-10T14:13:11.599Z,11.47
2019-04-10T14:18:08.258Z,11.73
2019-04-10T14:23:04.713Z,11.45
2019-04-10T14:28:00.580Z,11.54
2019-04-10T14:32:56.635Z,11.44
2019-04-10T14:37:52.510Z,11.50
2019-04-10T14:42:49.499Z,11.32
2019-04-10T14:47:44.536Z,10.94
2019-04-10T14:52:41.140Z,10.92
2019-04-10T14:57:37.078Z,11.10
2019-04-10T15:02:34.724Z,11.15
2019-04-10T15:07:31.050Z,11.17
2019-04-10T15:12:26.503Z,11.11
2019-04-10T15:17:23.113Z,11.02
2019-04-10T15:22:19.974Z,11.27
2019-04-10T15:27:15.471Z,11.32
2019-04-10T15:32:12.684Z,11.33
2019-04-10T15:37:08.858Z,11.00
2019-04-10T15:42:04.258Z,11.14
2019-04-10T15:47:13.658Z,10.93
2019-04-10T15:52:05.714Z,10.97
2019-04-10T15:57:02.653Z,11.05
2019-04-10T16:01:59.404Z,11.05
2019-04-10T16:06:56.050Z,10.89
2019-04-10T16:11:52.555Z,10.97
2019-04-10T16:16:49.322Z,10.93
2019-04-10T16:21:45.796Z,10.97
2019-04-10T16:26:45.411Z,10.75
2019-04-10T16:31:40.260Z,10.74
2019-04-10T16:36:37.422Z,10.68
2019-04-10T16:41:33.649Z,10.79
2019-04-10T16:46:29.904Z,10.75
2019-04-10T16:51:25.977Z,10.61
2019-04-10T16:56:21.303Z,10.61
2019-04-10T17:01:16.729Z,10.56
2019-04-10T17:06:12.953Z,10.54
2019-04-10T17:11:09.177Z,10.49
2019-04-10T17:16:05.892Z,10.54
2019-04-10T17:21:02.564Z,10.48
2019-04-10T17:25:58.279Z,10.26
2019-04-10T17:30:54.005Z,10.30
2019-04-10T17:35:49.649Z,10.07
2019-04-10T17:40:50.598Z," 9.99"
2019-04-10T17:45:44.825Z," 9.92"
2019-04-10T17:50:41.493Z," 9.72"
2019-04-10T17:55:37.726Z," 9.59"
2019-04-10T18:00:33.785Z," 9.61"
2019-04-10T18:05:30.881Z," 9.54"
2019-04-10T18:10:30.449Z," 9.39"
2019-04-10T18:15:26.063Z," 9.37"
2019-04-10T18:20:22.037Z," 9.21"
2019-04-10T18:25:20.083Z," 9.16"
2019-04-10T18:30:16.175Z," 8.95"
2019-04-10T18:35:12.831Z," 8.94"
2019-04-10T18:40:08.104Z," 8.82"
2019-04-10T18:45:03.768Z," 8.74"
2019-04-10T18:50:00.950Z," 8.66"
2019-04-10T18:54:58.398Z," 8.66"
2019-04-10T18:59:53.367Z," 8.55"
2019-04-10T19:04:49.555Z," 8.46"
2019-04-10T19:09:45.613Z," 8.37"
2019-04-10T19:14:42.559Z," 8.38"
2019-04-10T19:19:41.798Z," 8.16"
2019-04-10T19:24:38.261Z," 8.10"
2019-04-10T19:29:35.280Z," 8.00"
2019-04-10T19:34:31.721Z," 7.91"
2019-04-10T19:39:27.044Z," 7.85"
2019-04-10T19:44:23.487Z," 7.80"
2019-04-10T19:49:19.729Z," 7.79"
2019-04-10T19:54:16.059Z," 7.69"
2019-04-10T19:59:14.526Z," 7.61"
2019-04-10T20:04:12.433Z," 7.60"
2019-04-10T20:09:12.474Z," 7.48"
2019-04-10T20:14:08.388Z," 7.51"
2019-04-10T20:19:07.625Z," 7.39"
2019-04-10T20:24:06.214Z," 7.28"
2019-04-10T20:29:02.396Z," 7.24"
2019-04-10T20:33:59.063Z," 7.18"
2019-04-10T20:38:57.342Z," 7.07"
2019-04-10T20:43:57.989Z," 7.10"
2019-04-10T20:49:00.589Z," 7.05"
2019-04-10T20:54:00.783Z," 6.99"
2019-04-10T20:58:55.735Z," 6.96"
2019-04-10T21:03:59.540Z," 6.81"
2019-04-10T21:08:58.790Z," 6.77"
2019-04-10T21:14:05.437Z," 6.64"
2019-04-10T21:19:06.742Z," 6.84"
2019-04-10T21:24:04.917Z," 6.64"
2019-04-10T21:29:00.755Z," 6.67"
2019-04-10T21:33:57.055Z," 6.69"
2019-04-10T21:38:58.463Z," 6.59"
2019-04-10T21:43:52.358Z," 6.33"
2019-04-10T21:48:48.830Z," 6.33"
2019-04-10T21:53:45.240Z," 6.27"
2019-04-10T21:58:41.724Z," 6.24"
2019-04-10T22:03:37.976Z," 6.17"
2019-04-10T22:08:33.641Z," 6.09"
2019-04-10T22:13:29.975Z," 5.89"
2019-04-10T22:18:25.748Z," 5.83"
2019-04-10T22:23:22.366Z," 5.86"
2019-04-10T22:28:17.682Z," 5.75"
2019-04-10T22:33:14.055Z," 5.72"
2019-04-10T22:38:09.425Z," 5.66"
2019-04-10T22:43:05.868Z," 5.43"
2019-04-10T22:48:01.362Z," 5.51"
2019-04-10T22:52:57.076Z," 5.29"
2019-04-10T22:57:54.746Z," 5.17"
2019-04-10T23:02:50.599Z," 5.23"
2019-04-10T23:07:47.268Z," 5.26"
2019-04-10T23:12:52.258Z," 5.15"
2019-04-10T23:17:43.133Z," 5.12"
2019-04-10T23:22:38.555Z," 5.05"
2019-04-10T23:27:35.636Z," 4.90"
2019-04-10T23:32:31.183Z," 4.94"
2019-04-10T23:37:26.812Z," 4.82"
2019-04-10T23:42:23.293Z," 4.92"
2019-04-10T23:47:22.570Z," 4.84"
2019-04-10T23:52:18.313Z," 4.87"
2019-04-10T23:57:13.688Z," 4.70"
